sensor_id;sensor_type;location;lat;lon;timestamp;P1;durP1;ratioP1;P2;durP2;ratioP2
76964;SDS011;65903;51.452;7.198;2023-08-31T00:00:55;5.72;;;2.70;;
76964;SDS011;65903;51.452;7.198;2023-08-31T00:01:56;4.82;;;2.85;;
76964;SDS011;65903;51.452;7.198;2023-08-31T00:02:59;8.82;;;3.42;;
76964;SDS011;65903;51.452;7.198;2023-08-31T00:04:00;5.30;;;2.58;;
76964;SDS011;65903;51.452;7.198;2023-08-31T00:05:01;6.80;;;2.97;;
76964;SDS011;65903;51.452;7.198;2023-08-31T00:06:02;6.07;;;3.05;;
76964;SDS011;65903;51.452;7.198;2023-08-31T00:07:04;6.35;;;2.92;;
76964;SDS011;65903;51.452;7.198;2023-08-31T00:08:06;4.45;;;2.92;;
76964;SDS011;65903;51.452;7.198;2023-08-31T00:09:07;4.22;;;2.65;;
76964;SDS011;65903;51.452;7.198;2023-08-31T00:10:10;5.32;;;2.70;;
76964;SDS011;65903;51.452;7.198;2023-08-31T00:11:12;5.25;;;2.60;;
76964;SDS011;65903;51.452;7.198;2023-08-31T00:12:13;4.30;;;2.58;;
76964;SDS011;65903;51.452;7.198;2023-08-31T00:13:14;6.18;;;3.03;;
76964;SDS011;65903;51.452;7.198;2023-08-31T00:14:15;5.90;;;2.80;;
76964;SDS011;65903;51.452;7.198;2023-08-31T00:15:16;7.53;;;2.97;;
76964;SDS011;65903;51.452;7.198;2023-08-31T00:16:16;4.95;;;2.92;;
76964;SDS011;65903;51.452;7.198;2023-08-31T00:17:17;5.50;;;3.22;;
76964;SDS011;65903;51.452;7.198;2023-08-31T00:18:18;7.35;;;3.08;;
76964;SDS011;65903;51.452;7.198;2023-08-31T00:19:19;4.97;;;3.40;;
76964;SDS011;65903;51.452;7.198;2023-08-31T00:20:20;7.13;;;2.90;;
76964;SDS011;65903;51.452;7.198;2023-08-31T00:21:22;5.88;;;3.00;;
76964;SDS011;65903;51.452;7.198;2023-08-31T00:22:23;6.30;;;3.00;;
76964;SDS011;65903;51.452;7.198;2023-08-31T00:23:24;7.30;;;2.83;;
76964;SDS011;65903;51.452;7.198;2023-08-31T00:24:25;7.68;;;3.00;;
76964;SDS011;65903;51.452;7.198;2023-08-31T00:25:30;4.65;;;3.40;;
76964;SDS011;65903;51.452;7.198;2023-08-31T00:26:31;7.03;;;3.55;;
76964;SDS011;65903;51.452;7.198;2023-08-31T00:27:34;6.07;;;3.30;;
76964;SDS011;65903;51.452;7.198;2023-08-31T00:28:35;5.15;;;2.80;;
76964;SDS011;65903;51.452;7.198;2023-08-31T00:29:37;5.88;;;2.60;;
76964;SDS011;65903;51.452;7.198;2023-08-31T00:30:39;4.22;;;2.95;;
76964;SDS011;65903;51.452;7.198;2023-08-31T00:31:43;6.00;;;2.80;;
76964;SDS011;65903;51.452;7.198;2023-08-31T00:32:45;6.80;;;2.70;;
76964;SDS011;65903;51.452;7.198;2023-08-31T00:33:48;4.95;;;2.63;;
76964;SDS011;65903;51.452;7.198;2023-08-31T00:34:49;7.90;;;2.97;;
76964;SDS011;65903;51.452;7.198;2023-08-31T00:35:51;5.95;;;2.72;;
76964;SDS011;65903;51.452;7.198;2023-08-31T00:36:52;5.15;;;3.30;;
76964;SDS011;65903;51.452;7.198;2023-08-31T00:37:53;5.72;;;2.92;;
76964;SDS011;65903;51.452;7.198;2023-08-31T00:39:03;4.72;;;2.95;;
76964;SDS011;65903;51.452;7.198;2023-08-31T00:40:11;6.22;;;2.85;;
76964;SDS011;65903;51.452;7.198;2023-08-31T00:41:14;6.18;;;2.88;;
76964;SDS011;65903;51.452;7.198;2023-08-31T00:42:15;7.85;;;3.03;;
76964;SDS011;65903;51.452;7.198;2023-08-31T00:43:17;6.03;;;2.88;;
76964;SDS011;65903;51.452;7.198;2023-08-31T00:44:22;7.78;;;2.92;;
76964;SDS011;65903;51.452;7.198;2023-08-31T00:45:23;5.70;;;3.17;;
76964;SDS011;65903;51.452;7.198;2023-08-31T00:46:25;5.35;;;3.22;;
76964;SDS011;65903;51.452;7.198;2023-08-31T00:47:28;6.15;;;3.08;;
76964;SDS011;65903;51.452;7.198;2023-08-31T00:48:29;7.20;;;2.75;;
76964;SDS011;65903;51.452;7.198;2023-08-31T00:49:32;4.30;;;3.00;;
76964;SDS011;65903;51.452;7.198;2023-08-31T00:50:35;7.90;;;2.95;;
76964;SDS011;65903;51.452;7.198;2023-08-31T00:51:37;7.03;;;3.00;;
76964;SDS011;65903;51.452;7.198;2023-08-31T00:52:38;6.35;;;2.90;;
76964;SDS011;65903;51.452;7.198;2023-08-31T00:53:39;4.53;;;2.70;;
76964;SDS011;65903;51.452;7.198;2023-08-31T00:54:42;4.68;;;2.90;;
76964;SDS011;65903;51.452;7.198;2023-08-31T00:55:46;5.57;;;3.13;;
76964;SDS011;65903;51.452;7.198;2023-08-31T00:56:52;9.95;;;3.55;;
76964;SDS011;65903;51.452;7.198;2023-08-31T00:57:54;6.47;;;3.28;;
76964;SDS011;65903;51.452;7.198;2023-08-31T00:58:56;11.77;;;3.33;;
76964;SDS011;65903;51.452;7.198;2023-08-31T00:59:57;4.82;;;3.10;;
76964;SDS011;65903;51.452;7.198;2023-08-31T01:02:19;7.85;;;3.33;;
76964;SDS011;65903;51.452;7.198;2023-08-31T01:03:27;7.28;;;3.58;;
76964;SDS011;65903;51.452;7.198;2023-08-31T01:04:48;5.88;;;3.10;;
76964;SDS011;65903;51.452;7.198;2023-08-31T01:06:00;6.25;;;3.42;;
76964;SDS011;65903;51.452;7.198;2023-08-31T01:08:24;5.70;;;3.17;;
76964;SDS011;65903;51.452;7.198;2023-08-31T01:09:36;5.13;;;3.20;;
76964;SDS011;65903;51.452;7.198;2023-08-31T01:12:03;6.00;;;3.30;;
76964;SDS011;65903;51.452;7.198;2023-08-31T01:13:07;5.80;;;3.33;;
76964;SDS011;65903;51.452;7.198;2023-08-31T01:14:17;10.02;;;3.38;;
76964;SDS011;65903;51.452;7.198;2023-08-31T01:15:19;5.22;;;3.00;;
76964;SDS011;65903;51.452;7.198;2023-08-31T01:16:21;4.90;;;3.13;;
76964;SDS011;65903;51.452;7.198;2023-08-31T01:17:24;6.63;;;3.10;;
76964;SDS011;65903;51.452;7.198;2023-08-31T01:21:00;7.43;;;3.60;;
76964;SDS011;65903;51.452;7.198;2023-08-31T01:22:07;8.60;;;3.30;;
76964;SDS011;65903;51.452;7.198;2023-08-31T01:23:15;8.05;;;4.30;;
76964;SDS011;65903;51.452;7.198;2023-08-31T01:24:19;8.35;;;3.63;;
76964;SDS011;65903;51.452;7.198;2023-08-31T01:25:20;4.88;;;3.97;;
76964;SDS011;65903;51.452;7.198;2023-08-31T01:26:22;6.57;;;3.38;;
76964;SDS011;65903;51.452;7.198;2023-08-31T01:27:23;4.85;;;2.95;;
76964;SDS011;65903;51.452;7.198;2023-08-31T01:28:25;8.07;;;3.75;;
76964;SDS011;65903;51.452;7.198;2023-08-31T01:29:26;6.70;;;3.40;;
76964;SDS011;65903;51.452;7.198;2023-08-31T01:30:30;6.97;;;3.67;;
76964;SDS011;65903;51.452;7.198;2023-08-31T01:31:31;6.95;;;3.40;;
76964;SDS011;65903;51.452;7.198;2023-08-31T01:32:32;5.20;;;3.20;;
76964;SDS011;65903;51.452;7.198;2023-08-31T01:33:34;6.22;;;3.58;;
76964;SDS011;65903;51.452;7.198;2023-08-31T01:34:35;5.18;;;3.30;;
76964;SDS011;65903;51.452;7.198;2023-08-31T01:35:40;6.22;;;3.72;;
76964;SDS011;65903;51.452;7.198;2023-08-31T01:36:44;5.45;;;3.35;;
76964;SDS011;65903;51.452;7.198;2023-08-31T01:37:54;4.97;;;3.30;;
76964;SDS011;65903;51.452;7.198;2023-08-31T01:40:31;7.57;;;3.90;;
76964;SDS011;65903;51.452;7.198;2023-08-31T01:41:35;6.90;;;3.70;;
76964;SDS011;65903;51.452;7.198;2023-08-31T01:42:36;10.10;;;4.32;;
76964;SDS011;65903;51.452;7.198;2023-08-31T01:43:38;4.97;;;3.55;;
76964;SDS011;65903;51.452;7.198;2023-08-31T01:44:41;7.22;;;3.55;;
76964;SDS011;65903;51.452;7.198;2023-08-31T01:45:42;5.03;;;3.53;;
76964;SDS011;65903;51.452;7.198;2023-08-31T01:46:51;7.07;;;3.55;;
76964;SDS011;65903;51.452;7.198;2023-08-31T01:47:53;6.88;;;4.20;;
76964;SDS011;65903;51.452;7.198;2023-08-31T01:48:56;6.65;;;3.80;;
76964;SDS011;65903;51.452;7.198;2023-08-31T01:49:57;5.35;;;3.58;;
76964;SDS011;65903;51.452;7.198;2023-08-31T01:50:58;6.80;;;3.58;;
76964;SDS011;65903;51.452;7.198;2023-08-31T01:52:00;9.73;;;4.20;;
76964;SDS011;65903;51.452;7.198;2023-08-31T01:53:01;6.88;;;3.45;;
76964;SDS011;65903;51.452;7.198;2023-08-31T01:54:02;5.38;;;3.80;;
76964;SDS011;65903;51.452;7.198;2023-08-31T01:55:07;5.53;;;3.60;;
76964;SDS011;65903;51.452;7.198;2023-08-31T01:56:08;5.65;;;4.35;;
76964;SDS011;65903;51.452;7.198;2023-08-31T01:57:09;6.05;;;4.22;;
76964;SDS011;65903;51.452;7.198;2023-08-31T01:58:10;5.40;;;3.90;;
76964;SDS011;65903;51.452;7.198;2023-08-31T01:59:12;6.88;;;4.35;;
76964;SDS011;65903;51.452;7.198;2023-08-31T02:00:13;8.90;;;3.72;;
76964;SDS011;65903;51.452;7.198;2023-08-31T02:01:16;8.93;;;3.50;;
76964;SDS011;65903;51.452;7.198;2023-08-31T02:02:18;6.97;;;3.45;;
76964;SDS011;65903;51.452;7.198;2023-08-31T02:03:19;5.68;;;3.75;;
76964;SDS011;65903;51.452;7.198;2023-08-31T02:04:20;6.18;;;3.40;;
76964;SDS011;65903;51.452;7.198;2023-08-31T02:05:21;5.40;;;3.28;;
76964;SDS011;65903;51.452;7.198;2023-08-31T02:06:23;6.35;;;3.90;;
76964;SDS011;65903;51.452;7.198;2023-08-31T02:07:24;6.47;;;3.50;;
76964;SDS011;65903;51.452;7.198;2023-08-31T02:08:25;5.05;;;3.38;;
76964;SDS011;65903;51.452;7.198;2023-08-31T02:09:26;4.82;;;3.42;;
76964;SDS011;65903;51.452;7.198;2023-08-31T02:10:27;6.07;;;3.55;;
76964;SDS011;65903;51.452;7.198;2023-08-31T02:11:30;5.90;;;3.95;;
76964;SDS011;65903;51.452;7.198;2023-08-31T02:12:32;7.47;;;4.10;;
76964;SDS011;65903;51.452;7.198;2023-08-31T02:13:33;6.18;;;3.30;;
76964;SDS011;65903;51.452;7.198;2023-08-31T02:14:34;8.02;;;3.67;;
76964;SDS011;65903;51.452;7.198;2023-08-31T02:15:38;6.15;;;3.35;;
76964;SDS011;65903;51.452;7.198;2023-08-31T02:16:41;10.30;;;3.58;;
76964;SDS011;65903;51.452;7.198;2023-08-31T02:17:42;7.30;;;3.70;;
76964;SDS011;65903;51.452;7.198;2023-08-31T02:18:44;4.68;;;3.58;;
76964;SDS011;65903;51.452;7.198;2023-08-31T02:19:45;5.43;;;3.25;;
76964;SDS011;65903;51.452;7.198;2023-08-31T02:20:46;5.13;;;3.33;;
76964;SDS011;65903;51.452;7.198;2023-08-31T02:21:47;5.40;;;3.55;;
76964;SDS011;65903;51.452;7.198;2023-08-31T02:22:48;5.43;;;3.63;;
76964;SDS011;65903;51.452;7.198;2023-08-31T02:23:49;7.82;;;3.75;;
76964;SDS011;65903;51.452;7.198;2023-08-31T02:24:51;7.22;;;3.78;;
76964;SDS011;65903;51.452;7.198;2023-08-31T02:25:53;6.03;;;3.53;;
76964;SDS011;65903;51.452;7.198;2023-08-31T02:26:54;6.35;;;3.92;;
76964;SDS011;65903;51.452;7.198;2023-08-31T02:27:54;8.20;;;3.88;;
76964;SDS011;65903;51.452;7.198;2023-08-31T02:28:55;6.38;;;3.60;;
76964;SDS011;65903;51.452;7.198;2023-08-31T02:29:57;8.75;;;3.80;;
76964;SDS011;65903;51.452;7.198;2023-08-31T02:30:59;5.50;;;3.72;;
76964;SDS011;65903;51.452;7.198;2023-08-31T02:32:03;5.05;;;3.50;;
76964;SDS011;65903;51.452;7.198;2023-08-31T02:33:05;6.25;;;3.67;;
76964;SDS011;65903;51.452;7.198;2023-08-31T02:34:06;6.30;;;3.55;;
76964;SDS011;65903;51.452;7.198;2023-08-31T02:35:07;5.85;;;3.47;;
76964;SDS011;65903;51.452;7.198;2023-08-31T02:36:08;7.18;;;3.80;;
76964;SDS011;65903;51.452;7.198;2023-08-31T02:37:09;7.60;;;3.92;;
76964;SDS011;65903;51.452;7.198;2023-08-31T02:38:11;6.80;;;4.28;;
76964;SDS011;65903;51.452;7.198;2023-08-31T02:39:12;5.53;;;3.90;;
76964;SDS011;65903;51.452;7.198;2023-08-31T02:40:17;7.10;;;3.83;;
76964;SDS011;65903;51.452;7.198;2023-08-31T02:41:18;8.25;;;3.70;;
76964;SDS011;65903;51.452;7.198;2023-08-31T02:42:19;9.55;;;4.68;;
76964;SDS011;65903;51.452;7.198;2023-08-31T02:43:21;8.40;;;3.88;;
76964;SDS011;65903;51.452;7.198;2023-08-31T02:44:22;8.10;;;4.20;;
76964;SDS011;65903;51.452;7.198;2023-08-31T02:45:22;7.18;;;4.60;;
76964;SDS011;65903;51.452;7.198;2023-08-31T02:46:24;6.75;;;3.90;;
76964;SDS011;65903;51.452;7.198;2023-08-31T02:47:25;5.45;;;4.30;;
76964;SDS011;65903;51.452;7.198;2023-08-31T02:48:26;7.10;;;3.78;;
76964;SDS011;65903;51.452;7.198;2023-08-31T02:49:28;7.28;;;4.22;;
76964;SDS011;65903;51.452;7.198;2023-08-31T02:50:29;9.50;;;3.97;;
76964;SDS011;65903;51.452;7.198;2023-08-31T02:51:30;8.82;;;3.92;;
76964;SDS011;65903;51.452;7.198;2023-08-31T02:52:31;7.05;;;4.00;;
76964;SDS011;65903;51.452;7.198;2023-08-31T02:53:32;9.00;;;4.10;;
76964;SDS011;65903;51.452;7.198;2023-08-31T02:54:33;6.90;;;4.63;;
76964;SDS011;65903;51.452;7.198;2023-08-31T02:55:34;5.10;;;3.95;;
76964;SDS011;65903;51.452;7.198;2023-08-31T02:56:35;6.00;;;3.92;;
76964;SDS011;65903;51.452;7.198;2023-08-31T02:57:36;10.00;;;4.10;;
76964;SDS011;65903;51.452;7.198;2023-08-31T02:58:37;6.80;;;3.70;;
76964;SDS011;65903;51.452;7.198;2023-08-31T02:59:38;6.90;;;3.70;;
76964;SDS011;65903;51.452;7.198;2023-08-31T03:00:39;8.95;;;3.92;;
76964;SDS011;65903;51.452;7.198;2023-08-31T03:01:43;6.97;;;3.88;;
76964;SDS011;65903;51.452;7.198;2023-08-31T03:02:46;6.03;;;4.03;;
76964;SDS011;65903;51.452;7.198;2023-08-31T03:03:48;6.47;;;3.72;;
76964;SDS011;65903;51.452;7.198;2023-08-31T03:04:48;7.03;;;4.07;;
76964;SDS011;65903;51.452;7.198;2023-08-31T03:05:54;8.90;;;4.35;;
76964;SDS011;65903;51.452;7.198;2023-08-31T03:06:55;6.55;;;4.15;;
76964;SDS011;65903;51.452;7.198;2023-08-31T03:07:56;6.57;;;3.60;;
76964;SDS011;65903;51.452;7.198;2023-08-31T03:08:58;6.00;;;4.20;;
76964;SDS011;65903;51.452;7.198;2023-08-31T03:09:59;9.32;;;4.25;;
76964;SDS011;65903;51.452;7.198;2023-08-31T03:11:00;8.18;;;4.60;;
76964;SDS011;65903;51.452;7.198;2023-08-31T03:12:01;6.75;;;4.07;;
76964;SDS011;65903;51.452;7.198;2023-08-31T03:13:02;6.55;;;4.03;;
76964;SDS011;65903;51.452;7.198;2023-08-31T03:14:06;6.25;;;3.90;;
76964;SDS011;65903;51.452;7.198;2023-08-31T03:15:07;6.55;;;3.97;;
76964;SDS011;65903;51.452;7.198;2023-08-31T03:16:09;7.22;;;4.20;;
76964;SDS011;65903;51.452;7.198;2023-08-31T03:17:11;8.57;;;4.25;;
76964;SDS011;65903;51.452;7.198;2023-08-31T03:18:12;5.57;;;3.88;;
76964;SDS011;65903;51.452;7.198;2023-08-31T03:19:13;9.85;;;4.50;;
76964;SDS011;65903;51.452;7.198;2023-08-31T03:20:13;5.75;;;3.88;;
76964;SDS011;65903;51.452;7.198;2023-08-31T03:21:14;6.43;;;4.32;;
76964;SDS011;65903;51.452;7.198;2023-08-31T03:22:16;6.03;;;4.43;;
76964;SDS011;65903;51.452;7.198;2023-08-31T03:24:20;6.60;;;4.20;;
76964;SDS011;65903;51.452;7.198;2023-08-31T03:25:21;7.40;;;4.82;;
76964;SDS011;65903;51.452;7.198;2023-08-31T03:26:21;7.38;;;4.68;;
76964;SDS011;65903;51.452;7.198;2023-08-31T03:27:22;7.10;;;4.70;;
76964;SDS011;65903;51.452;7.198;2023-08-31T03:28:23;7.72;;;5.07;;
76964;SDS011;65903;51.452;7.198;2023-08-31T03:29:24;7.78;;;4.63;;
76964;SDS011;65903;51.452;7.198;2023-08-31T03:30:25;8.45;;;4.70;;
76964;SDS011;65903;51.452;7.198;2023-08-31T03:31:26;8.55;;;5.15;;
76964;SDS011;65903;51.452;7.198;2023-08-31T03:32:27;9.02;;;5.05;;
76964;SDS011;65903;51.452;7.198;2023-08-31T03:33:28;7.95;;;4.93;;
76964;SDS011;65903;51.452;7.198;2023-08-31T03:34:30;10.60;;;5.70;;
76964;SDS011;65903;51.452;7.198;2023-08-31T03:35:31;7.55;;;4.90;;
76964;SDS011;65903;51.452;7.198;2023-08-31T03:36:33;7.78;;;5.18;;
76964;SDS011;65903;51.452;7.198;2023-08-31T03:37:34;8.15;;;4.70;;
76964;SDS011;65903;51.452;7.198;2023-08-31T03:38:35;6.78;;;4.43;;
76964;SDS011;65903;51.452;7.198;2023-08-31T03:39:38;7.40;;;4.75;;
76964;SDS011;65903;51.452;7.198;2023-08-31T03:40:41;7.53;;;5.25;;
76964;SDS011;65903;51.452;7.198;2023-08-31T03:41:42;8.82;;;4.80;;
76964;SDS011;65903;51.452;7.198;2023-08-31T03:42:43;10.68;;;5.45;;
76964;SDS011;65903;51.452;7.198;2023-08-31T03:43:44;8.65;;;5.28;;
76964;SDS011;65903;51.452;7.198;2023-08-31T03:44:45;8.60;;;5.60;;
76964;SDS011;65903;51.452;7.198;2023-08-31T03:45:46;9.07;;;5.60;;
76964;SDS011;65903;51.452;7.198;2023-08-31T03:46:47;8.80;;;5.50;;
76964;SDS011;65903;51.452;7.198;2023-08-31T03:47:48;7.65;;;5.47;;
76964;SDS011;65903;51.452;7.198;2023-08-31T03:48:49;8.80;;;5.80;;
76964;SDS011;65903;51.452;7.198;2023-08-31T03:49:51;10.00;;;6.03;;
76964;SDS011;65903;51.452;7.198;2023-08-31T03:50:52;10.38;;;7.05;;
76964;SDS011;65903;51.452;7.198;2023-08-31T03:51:53;10.02;;;6.15;;
76964;SDS011;65903;51.452;7.198;2023-08-31T03:52:55;10.50;;;6.95;;
76964;SDS011;65903;51.452;7.198;2023-08-31T03:53:56;9.70;;;6.72;;
76964;SDS011;65903;51.452;7.198;2023-08-31T03:54:57;10.57;;;6.35;;
76964;SDS011;65903;51.452;7.198;2023-08-31T03:55:58;8.98;;;6.40;;
76964;SDS011;65903;51.452;7.198;2023-08-31T03:57:00;9.38;;;6.78;;
76964;SDS011;65903;51.452;7.198;2023-08-31T03:58:01;8.65;;;6.32;;
76964;SDS011;65903;51.452;7.198;2023-08-31T03:59:02;10.32;;;7.18;;
76964;SDS011;65903;51.452;7.198;2023-08-31T04:00:08;9.15;;;6.82;;
76964;SDS011;65903;51.452;7.198;2023-08-31T04:01:10;12.80;;;7.80;;
76964;SDS011;65903;51.452;7.198;2023-08-31T04:02:11;10.15;;;7.18;;
76964;SDS011;65903;51.452;7.198;2023-08-31T04:03:12;12.43;;;8.57;;
76964;SDS011;65903;51.452;7.198;2023-08-31T04:04:13;12.50;;;8.35;;
76964;SDS011;65903;51.452;7.198;2023-08-31T04:05:15;11.00;;;8.07;;
76964;SDS011;65903;51.452;7.198;2023-08-31T04:06:16;14.75;;;7.45;;
76964;SDS011;65903;51.452;7.198;2023-08-31T04:07:18;14.25;;;8.77;;
76964;SDS011;65903;51.452;7.198;2023-08-31T04:08:19;11.98;;;7.90;;
76964;SDS011;65903;51.452;7.198;2023-08-31T04:09:21;12.95;;;8.75;;
76964;SDS011;65903;51.452;7.198;2023-08-31T04:10:22;13.15;;;8.43;;
76964;SDS011;65903;51.452;7.198;2023-08-31T04:11:24;19.77;;;8.77;;
76964;SDS011;65903;51.452;7.198;2023-08-31T04:12:26;13.68;;;9.68;;
76964;SDS011;65903;51.452;7.198;2023-08-31T04:13:27;16.02;;;9.65;;
76964;SDS011;65903;51.452;7.198;2023-08-31T04:14:27;16.27;;;9.35;;
76964;SDS011;65903;51.452;7.198;2023-08-31T04:15:29;16.55;;;10.30;;
76964;SDS011;65903;51.452;7.198;2023-08-31T04:16:31;15.68;;;10.02;;
76964;SDS011;65903;51.452;7.198;2023-08-31T04:17:33;16.70;;;10.70;;
76964;SDS011;65903;51.452;7.198;2023-08-31T04:18:36;16.20;;;9.63;;
76964;SDS011;65903;51.452;7.198;2023-08-31T04:19:37;15.35;;;10.07;;
76964;SDS011;65903;51.452;7.198;2023-08-31T04:20:38;16.80;;;9.98;;
76964;SDS011;65903;51.452;7.198;2023-08-31T04:21:40;16.88;;;10.50;;
76964;SDS011;65903;51.452;7.198;2023-08-31T04:22:41;17.17;;;9.82;;
76964;SDS011;65903;51.452;7.198;2023-08-31T04:23:42;12.98;;;8.70;;
76964;SDS011;65903;51.452;7.198;2023-08-31T04:24:43;17.23;;;9.93;;
76964;SDS011;65903;51.452;7.198;2023-08-31T04:25:46;16.85;;;10.48;;
76964;SDS011;65903;51.452;7.198;2023-08-31T04:26:51;15.18;;;9.68;;
76964;SDS011;65903;51.452;7.198;2023-08-31T04:27:52;14.70;;;9.00;;
76964;SDS011;65903;51.452;7.198;2023-08-31T04:28:53;15.95;;;10.38;;
76964;SDS011;65903;51.452;7.198;2023-08-31T04:29:54;16.83;;;10.52;;
76964;SDS011;65903;51.452;7.198;2023-08-31T04:30:56;15.00;;;10.25;;
76964;SDS011;65903;51.452;7.198;2023-08-31T04:31:57;17.02;;;9.63;;
76964;SDS011;65903;51.452;7.198;2023-08-31T04:33:00;16.35;;;9.80;;
76964;SDS011;65903;51.452;7.198;2023-08-31T04:34:01;15.57;;;9.65;;
76964;SDS011;65903;51.452;7.198;2023-08-31T04:35:03;15.63;;;9.95;;
76964;SDS011;65903;51.452;7.198;2023-08-31T04:36:08;14.68;;;9.63;;
76964;SDS011;65903;51.452;7.198;2023-08-31T04:37:09;15.15;;;9.68;;
76964;SDS011;65903;51.452;7.198;2023-08-31T04:38:10;13.60;;;9.30;;
76964;SDS011;65903;51.452;7.198;2023-08-31T04:39:14;12.88;;;9.23;;
76964;SDS011;65903;51.452;7.198;2023-08-31T04:40:15;14.40;;;9.93;;
76964;SDS011;65903;51.452;7.198;2023-08-31T04:41:16;15.30;;;9.63;;
76964;SDS011;65903;51.452;7.198;2023-08-31T04:42:17;14.32;;;8.93;;
76964;SDS011;65903;51.452;7.198;2023-08-31T04:43:18;14.20;;;9.15;;
76964;SDS011;65903;51.452;7.198;2023-08-31T04:44:19;21.25;;;10.23;;
76964;SDS011;65903;51.452;7.198;2023-08-31T04:45:20;13.80;;;9.50;;
76964;SDS011;65903;51.452;7.198;2023-08-31T04:46:21;12.95;;;9.65;;
76964;SDS011;65903;51.452;7.198;2023-08-31T04:47:23;13.88;;;9.35;;
76964;SDS011;65903;51.452;7.198;2023-08-31T04:48:24;14.07;;;9.38;;
76964;SDS011;65903;51.452;7.198;2023-08-31T04:49:25;13.18;;;8.98;;
76964;SDS011;65903;51.452;7.198;2023-08-31T04:50:27;13.77;;;8.75;;
76964;SDS011;65903;51.452;7.198;2023-08-31T04:51:29;15.23;;;9.50;;
76964;SDS011;65903;51.452;7.198;2023-08-31T04:52:35;16.67;;;9.15;;
76964;SDS011;65903;51.452;7.198;2023-08-31T04:53:36;13.98;;;10.20;;
76964;SDS011;65903;51.452;7.198;2023-08-31T04:54:37;14.30;;;9.18;;
76964;SDS011;65903;51.452;7.198;2023-08-31T04:55:39;13.57;;;9.93;;
76964;SDS011;65903;51.452;7.198;2023-08-31T04:56:40;15.30;;;10.13;;
76964;SDS011;65903;51.452;7.198;2023-08-31T04:57:41;13.35;;;9.07;;
76964;SDS011;65903;51.452;7.198;2023-08-31T04:58:42;17.13;;;9.75;;
76964;SDS011;65903;51.452;7.198;2023-08-31T04:59:43;17.85;;;10.57;;
76964;SDS011;65903;51.452;7.198;2023-08-31T05:00:44;19.10;;;10.23;;
76964;SDS011;65903;51.452;7.198;2023-08-31T05:01:45;17.00;;;10.70;;
76964;SDS011;65903;51.452;7.198;2023-08-31T05:02:46;14.88;;;9.82;;
76964;SDS011;65903;51.452;7.198;2023-08-31T05:03:47;14.25;;;9.98;;
76964;SDS011;65903;51.452;7.198;2023-08-31T05:04:48;15.75;;;10.40;;
76964;SDS011;65903;51.452;7.198;2023-08-31T05:05:52;16.23;;;10.35;;
76964;SDS011;65903;51.452;7.198;2023-08-31T05:06:53;16.38;;;9.95;;
76964;SDS011;65903;51.452;7.198;2023-08-31T05:07:54;18.48;;;10.77;;
76964;SDS011;65903;51.452;7.198;2023-08-31T05:08:56;15.30;;;10.02;;
76964;SDS011;65903;51.452;7.198;2023-08-31T05:09:57;17.35;;;10.13;;
76964;SDS011;65903;51.452;7.198;2023-08-31T05:10:58;15.18;;;10.07;;
76964;SDS011;65903;51.452;7.198;2023-08-31T05:12:02;16.80;;;10.80;;
76964;SDS011;65903;51.452;7.198;2023-08-31T05:13:04;13.90;;;9.50;;
76964;SDS011;65903;51.452;7.198;2023-08-31T05:14:07;16.40;;;10.18;;
76964;SDS011;65903;51.452;7.198;2023-08-31T05:15:08;14.85;;;9.93;;
76964;SDS011;65903;51.452;7.198;2023-08-31T05:16:10;15.05;;;10.32;;
76964;SDS011;65903;51.452;7.198;2023-08-31T05:17:11;14.10;;;9.88;;
76964;SDS011;65903;51.452;7.198;2023-08-31T05:18:12;15.50;;;9.93;;
76964;SDS011;65903;51.452;7.198;2023-08-31T05:19:13;15.07;;;10.20;;
76964;SDS011;65903;51.452;7.198;2023-08-31T05:20:14;16.00;;;10.00;;
76964;SDS011;65903;51.452;7.198;2023-08-31T05:21:16;15.55;;;10.45;;
76964;SDS011;65903;51.452;7.198;2023-08-31T05:22:18;15.77;;;10.18;;
76964;SDS011;65903;51.452;7.198;2023-08-31T05:23:19;15.77;;;9.95;;
76964;SDS011;65903;51.452;7.198;2023-08-31T05:24:20;15.60;;;9.52;;
76964;SDS011;65903;51.452;7.198;2023-08-31T05:25:22;15.27;;;10.13;;
76964;SDS011;65903;51.452;7.198;2023-08-31T05:26:23;15.20;;;10.02;;
76964;SDS011;65903;51.452;7.198;2023-08-31T05:27:24;14.48;;;9.65;;
76964;SDS011;65903;51.452;7.198;2023-08-31T05:28:25;15.35;;;9.73;;
76964;SDS011;65903;51.452;7.198;2023-08-31T05:29:26;15.60;;;10.13;;
76964;SDS011;65903;51.452;7.198;2023-08-31T05:30:28;15.32;;;10.07;;
76964;SDS011;65903;51.452;7.198;2023-08-31T05:31:29;14.40;;;9.73;;
76964;SDS011;65903;51.452;7.198;2023-08-31T05:32:30;15.20;;;10.43;;
76964;SDS011;65903;51.452;7.198;2023-08-31T05:33:32;15.82;;;9.80;;
76964;SDS011;65903;51.452;7.198;2023-08-31T05:34:34;14.48;;;9.48;;
76964;SDS011;65903;51.452;7.198;2023-08-31T05:35:38;15.23;;;10.07;;
76964;SDS011;65903;51.452;7.198;2023-08-31T05:36:39;14.63;;;10.43;;
76964;SDS011;65903;51.452;7.198;2023-08-31T05:37:40;16.60;;;10.77;;
76964;SDS011;65903;51.452;7.198;2023-08-31T05:38:42;14.25;;;10.25;;
76964;SDS011;65903;51.452;7.198;2023-08-31T05:39:47;15.60;;;10.43;;
76964;SDS011;65903;51.452;7.198;2023-08-31T05:40:48;13.88;;;9.27;;
76964;SDS011;65903;51.452;7.198;2023-08-31T05:41:50;16.30;;;10.27;;
76964;SDS011;65903;51.452;7.198;2023-08-31T05:42:51;15.65;;;9.48;;
76964;SDS011;65903;51.452;7.198;2023-08-31T05:43:52;12.82;;;9.88;;
76964;SDS011;65903;51.452;7.198;2023-08-31T05:44:54;15.95;;;9.43;;
76964;SDS011;65903;51.452;7.198;2023-08-31T05:45:55;15.45;;;10.07;;
76964;SDS011;65903;51.452;7.198;2023-08-31T05:46:56;15.65;;;9.90;;
76964;SDS011;65903;51.452;7.198;2023-08-31T05:47:57;15.73;;;9.30;;
76964;SDS011;65903;51.452;7.198;2023-08-31T05:48:58;16.63;;;9.82;;
76964;SDS011;65903;51.452;7.198;2023-08-31T05:49:59;18.77;;;10.20;;
76964;SDS011;65903;51.452;7.198;2023-08-31T05:51:00;14.43;;;9.30;;
76964;SDS011;65903;51.452;7.198;2023-08-31T05:52:02;15.35;;;9.20;;
76964;SDS011;65903;51.452;7.198;2023-08-31T05:53:03;15.82;;;9.88;;
76964;SDS011;65903;51.452;7.198;2023-08-31T05:54:05;14.07;;;9.77;;
76964;SDS011;65903;51.452;7.198;2023-08-31T05:55:11;13.45;;;9.13;;
76964;SDS011;65903;51.452;7.198;2023-08-31T05:56:12;15.32;;;9.52;;
76964;SDS011;65903;51.452;7.198;2023-08-31T05:57:13;13.90;;;8.90;;
76964;SDS011;65903;51.452;7.198;2023-08-31T05:58:14;15.55;;;9.73;;
76964;SDS011;65903;51.452;7.198;2023-08-31T05:59:15;14.57;;;9.70;;
76964;SDS011;65903;51.452;7.198;2023-08-31T06:00:16;13.07;;;9.48;;
76964;SDS011;65903;51.452;7.198;2023-08-31T06:01:17;12.93;;;8.63;;
76964;SDS011;65903;51.452;7.198;2023-08-31T06:02:19;14.82;;;8.50;;
76964;SDS011;65903;51.452;7.198;2023-08-31T06:03:20;14.30;;;9.18;;
76964;SDS011;65903;51.452;7.198;2023-08-31T06:04:21;12.80;;;8.90;;
76964;SDS011;65903;51.452;7.198;2023-08-31T06:05:22;13.70;;;9.15;;
76964;SDS011;65903;51.452;7.198;2023-08-31T06:06:23;13.05;;;8.55;;
76964;SDS011;65903;51.452;7.198;2023-08-31T06:07:24;10.95;;;8.23;;
76964;SDS011;65903;51.452;7.198;2023-08-31T06:08:25;15.88;;;8.68;;
76964;SDS011;65903;51.452;7.198;2023-08-31T06:09:28;10.45;;;8.60;;
76964;SDS011;65903;51.452;7.198;2023-08-31T06:10:29;14.88;;;8.38;;
76964;SDS011;65903;51.452;7.198;2023-08-31T06:11:30;12.65;;;8.13;;
76964;SDS011;65903;51.452;7.198;2023-08-31T06:12:31;13.40;;;8.10;;
76964;SDS011;65903;51.452;7.198;2023-08-31T06:13:32;11.23;;;7.18;;
76964;SDS011;65903;51.452;7.198;2023-08-31T06:14:34;11.98;;;7.88;;
76964;SDS011;65903;51.452;7.198;2023-08-31T06:15:35;10.32;;;7.60;;
76964;SDS011;65903;51.452;7.198;2023-08-31T06:16:37;10.40;;;7.72;;
76964;SDS011;65903;51.452;7.198;2023-08-31T06:17:37;10.52;;;7.22;;
76964;SDS011;65903;51.452;7.198;2023-08-31T06:18:39;13.82;;;7.93;;
76964;SDS011;65903;51.452;7.198;2023-08-31T06:19:41;12.68;;;7.55;;